createdAt,value
2022-09-03T00:01:52.853Z,97219.25
2022-09-03T00:04:31.540Z,97217.31
2022-09-03T00:07:08.799Z,97217.77
2022-09-03T00:09:47.155Z,97221.21
2022-09-03T00:12:24.018Z,97219.63
2022-09-03T00:14:58.692Z,97219.74
2022-09-03T00:18:07.482Z,97222.98
2022-09-03T00:21:08.360Z,97220.49
2022-09-03T00:23:40.885Z,97218.30
2022-09-03T00:26:12.541Z,97217.31
2022-09-03T00:29:20.051Z,97216.43
2022-09-03T00:31:57.064Z,97216.12
2022-09-03T00:34:40.810Z,97215.63
2022-09-03T00:37:14.489Z,97219.35
2022-09-03T00:39:44.429Z,97218.03
2022-09-03T00:42:33.750Z,97220.70
2022-09-03T00:45:08.058Z,97221.19
2022-09-03T00:48:12.261Z,97220.81
2022-09-03T00:51:05.025Z,97217.70
2022-09-03T00:53:58.927Z,97213.89
2022-09-03T00:56:33.017Z,97212.17
2022-09-03T00:59:12.227Z,97211.97
2022-09-03T01:02:02.266Z,97213.45
2022-09-03T01:04:52.623Z,97218.44
2022-09-03T01:07:35.816Z,97221.14
2022-09-03T01:10:27.501Z,97222.98
2022-09-03T01:13:07.157Z,97224.34
2022-09-03T01:15:56.914Z,97218.96
2022-09-03T01:18:43.894Z,97222.48
2022-09-03T01:21:34.919Z,97223.09
2022-09-03T01:24:30.074Z,97223.86
2022-09-03T01:27:26.672Z,97229.15
2022-09-03T01:30:04.272Z,97225.02
2022-09-03T01:32:55.480Z,97230.79
2022-09-03T01:35:53.704Z,97233.98
2022-09-03T01:38:35.020Z,97232.80
2022-09-03T01:41:34.280Z,97232.85
2022-09-03T01:44:09.583Z,97230.58
2022-09-03T01:46:41.160Z,97232.40
2022-09-03T01:49:35.162Z,97232.79
2022-09-03T01:52:29.899Z,97230.30
2022-09-03T01:55:10.122Z,97227.65
2022-09-03T01:57:49.041Z,97228.58
2022-09-03T02:00:23.325Z,97235.36
2022-09-03T02:02:52.990Z,97236.79
2022-09-03T02:05:25.058Z,97240.81
2022-09-03T02:08:06.958Z,97240.41
2022-09-03T02:10:44.393Z,97239.27
2022-09-03T02:13:27.003Z,97240.88
2022-09-03T02:16:01.164Z,97243.42
2022-09-03T02:18:34.184Z,97246.16
2022-09-03T02:21:02.329Z,97253.40
2022-09-03T02:23:30.944Z,97251.96
2022-09-03T02:26:02.564Z,97248.52
2022-09-03T02:28:33.210Z,97248.92
2022-09-03T02:31:01.273Z,97248.36
2022-09-03T02:33:31.530Z,97251.98
2022-09-03T02:35:59.749Z,97250.91
2022-09-03T02:38:28.562Z,97248.87
2022-09-03T02:40:56.537Z,97248.08
2022-09-03T02:43:35.391Z,97246.12
2022-09-03T02:46:08.223Z,97248.04
2022-09-03T02:48:36.405Z,97246.73
2022-09-03T02:51:14.115Z,97249.20
2022-09-03T02:53:43.352Z,97251.83
2022-09-03T02:56:12.470Z,97258.67
2022-09-03T02:58:41.186Z,97265.35
2022-09-03T03:01:09.198Z,97261.47
2022-09-03T03:03:37.366Z,97256.61
2022-09-03T03:06:07.186Z,97256.23
2022-09-03T03:08:35.325Z,97255.33
2022-09-03T03:11:03.382Z,97256.66
2022-09-03T03:13:32.420Z,97257.24
2022-09-03T03:16:08.656Z,97261.52
2022-09-03T03:18:36.750Z,97263.39
2022-09-03T03:21:10.344Z,97262.76
2022-09-03T03:23:39.765Z,97262.93
2022-09-03T03:26:10.807Z,97265.74
2022-09-03T03:28:39.418Z,97263.14
2022-09-03T03:31:13.204Z,97266.83
2022-09-03T03:33:42.175Z,97266.83
2022-09-03T03:36:12.376Z,97263.21
2022-09-03T03:38:42.298Z,97261.02
2022-09-03T03:41:12.973Z,97260.77
2022-09-03T03:43:40.945Z,97260.37
2022-09-03T03:46:11.044Z,97261.71
2022-09-03T03:48:39.647Z,97263.05
2022-09-03T03:51:09.981Z,97261.06
2022-09-03T03:53:38.948Z,97260.19
2022-09-03T03:56:11.102Z,97257.35
2022-09-03T03:58:44.344Z,97260.39
2022-09-03T04:01:21.333Z,97258.34
2022-09-03T04:03:49.932Z,97257.83
2022-09-03T04:06:20.425Z,97255.13
2022-09-03T04:08:49.732Z,97253.42
2022-09-03T04:11:21.500Z,97251.98
2022-09-03T04:13:51.194Z,97251.23
2022-09-03T04:16:22.219Z,97251.05
2022-09-03T04:18:51.713Z,97252.79
2022-09-03T04:21:28.715Z,97253.28
2022-09-03T04:23:58.430Z,97259.41
2022-09-03T04:26:32.030Z,97262.91
2022-09-03T04:29:02.454Z,97263.56
2022-09-03T04:31:31.765Z,97264.80
2022-09-03T04:34:00.119Z,97268.10
2022-09-03T04:36:30.975Z,97273.13
2022-09-03T04:39:01.815Z,97271.41
2022-09-03T04:41:31.587Z,97273.77
2022-09-03T04:44:01.003Z,97271.67
2022-09-03T04:46:33.945Z,97273.24
2022-09-03T04:49:03.303Z,97269.37
2022-09-03T04:51:31.914Z,97267.06
2022-09-03T04:54:02.310Z,97262.98
2022-09-03T04:56:33.575Z,97270.64
2022-09-03T04:59:04.527Z,97275.21
2022-09-03T05:01:36.153Z,97282.25
2022-09-03T05:04:05.237Z,97288.84
2022-09-03T05:06:35.009Z,97288.08
2022-09-03T05:09:04.346Z,97288.61
2022-09-03T05:11:32.516Z,97289.70
2022-09-03T05:14:01.217Z,97286.95
2022-09-03T05:16:31.239Z,97284.05
2022-09-03T05:19:01.556Z,97282.91
2022-09-03T05:21:30.143Z,97282.59
2022-09-03T05:24:00.035Z,97282.30
2022-09-03T05:26:30.996Z,97289.64
2022-09-03T05:29:01.699Z,97298.54
2022-09-03T05:31:32.261Z,97301.84
2022-09-03T05:34:04.097Z,97304.30
2022-09-03T05:36:37.316Z,97305.45
2022-09-03T05:39:06.188Z,97308.80
2022-09-03T05:41:34.759Z,97310.11
2022-09-03T05:44:04.253Z,97310.97
2022-09-03T05:46:35.551Z,97315.52
2022-09-03T05:49:06.216Z,97320.50
2022-09-03T05:51:36.454Z,97321.02
2022-09-03T05:54:05.374Z,97321.20
2022-09-03T05:56:33.802Z,97317.29
2022-09-03T05:59:06.932Z,97315.98
2022-09-03T06:01:51.577Z,97320.36
2022-09-03T06:04:22.037Z,97324.86
2022-09-03T06:06:50.209Z,97323.01
2022-09-03T06:09:21.280Z,97327.74
2022-09-03T06:11:52.604Z,97327.89
2022-09-03T06:14:22.262Z,97330.63
2022-09-03T06:16:53.083Z,97335.59
2022-09-03T06:19:21.348Z,97338.09
2022-09-03T06:21:49.343Z,97339.31
2022-09-03T06:24:26.703Z,97336.90
2022-09-03T06:26:57.080Z,97337.39
2022-09-03T06:29:26.069Z,97338.44
2022-09-03T06:31:54.090Z,97341.14
2022-09-03T06:34:23.428Z,97343.48
2022-09-03T06:36:51.885Z,97348.70
2022-09-03T06:39:23.167Z,97349.69
2022-09-03T06:41:52.310Z,97347.41
2022-09-03T06:44:26.221Z,97346.84
2022-09-03T06:46:54.337Z,97347.37
2022-09-03T06:49:22.509Z,97347.39
2022-09-03T06:51:50.595Z,97346.27
2022-09-03T06:54:18.694Z,97341.47
2022-09-03T06:56:46.648Z,97341.36
2022-09-03T06:59:15.504Z,97340.57
2022-09-03T07:01:46.224Z,97340.36
2022-09-03T07:04:20.164Z,97344.13
2022-09-03T07:06:48.351Z,97348.99
2022-09-03T07:09:18.535Z,97349.92
2022-09-03T07:11:48.089Z,97353.92
2022-09-03T07:14:19.077Z,97359.76
2022-09-03T07:16:48.932Z,97361.39
2022-09-03T07:19:17.574Z,97362.39
2022-09-03T07:21:50.247Z,97363.21
2022-09-03T07:24:22.228Z,97366.34
2022-09-03T07:26:50.738Z,97372.63
2022-09-03T07:29:21.988Z,97375.81
2022-09-03T07:31:52.128Z,97375.11
2022-09-03T07:34:25.426Z,97381.40
2022-09-03T07:36:54.913Z,97382.00
2022-09-03T07:39:23.089Z,97387.70
2022-09-03T07:41:51.235Z,97385.55
2022-09-03T07:44:20.536Z,97382.13
2022-09-03T07:46:51.301Z,97384.30
2022-09-03T07:49:22.285Z,97384.35
2022-09-03T07:51:53.054Z,97386.46
2022-09-03T07:54:22.135Z,97388.95
2022-09-03T07:56:50.141Z,97392.54
2022-09-03T07:59:19.272Z,97391.36
2022-09-03T08:01:47.237Z,97392.80
2022-09-03T08:04:15.262Z,97392.09
2022-09-03T08:06:43.296Z,97392.06
2022-09-03T08:09:13.904Z,97389.11
2022-09-03T08:11:43.833Z,97391.88
2022-09-03T08:14:13.935Z,97397.30
2022-09-03T08:16:48.320Z,97399.58
2022-09-03T08:19:20.892Z,97401.21
2022-09-03T08:21:48.900Z,97401.98
2022-09-03T08:24:21.059Z,97401.41
2022-09-03T08:26:52.225Z,97395.46
2022-09-03T08:29:22.267Z,97398.53
2022-09-03T08:31:50.688Z,97395.45
2022-09-03T08:34:19.237Z,97397.59
2022-09-03T08:36:47.667Z,97394.39
2022-09-03T08:39:16.123Z,97395.02
2022-09-03T08:41:53.291Z,97397.58
2022-09-03T08:44:51.023Z,97399.65
2022-09-03T08:47:38.792Z,97400.95
2022-09-03T08:50:19.565Z,97400.45
2022-09-03T08:52:55.031Z,97405.11
2022-09-03T08:55:26.247Z,97402.84
2022-09-03T08:57:57.886Z,97405.55
2022-09-03T09:00:35.269Z,97408.52
2022-09-03T09:03:45.638Z,97408.09
2022-09-03T09:06:38.632Z,97410.05
2022-09-03T09:09:15.712Z,97408.95
2022-09-03T09:12:11.723Z,97407.41
2022-09-03T09:15:02.805Z,97412.72
2022-09-03T09:18:02.950Z,97415.29
2022-09-03T09:20:49.611Z,97413.88
2022-09-03T09:23:33.571Z,97414.34
2022-09-03T09:26:05.646Z,97415.15
2022-09-03T09:28:37.728Z,97417.50
2022-09-03T09:31:12.666Z,97422.47
2022-09-03T09:33:40.962Z,97426.77
2022-09-03T09:36:13.801Z,97423.20
2022-09-03T09:38:43.269Z,97426.81
2022-09-03T09:41:20.385Z,97427.88
2022-09-03T09:43:48.388Z,97426.50
2022-09-03T09:46:30.881Z,97428.27
2022-09-03T09:48:59.010Z,97431.05
2022-09-03T09:51:31.946Z,97435.30
2022-09-03T09:54:08.833Z,97434.13
2022-09-03T09:56:36.785Z,97431.80
2022-09-03T09:59:10.046Z,97434.53
2022-09-03T10:01:44.910Z,97431.96
2022-09-03T10:04:33.014Z,97433.55
2022-09-03T10:07:25.398Z,97435.20
2022-09-03T10:10:07.130Z,97433.66
2022-09-03T10:12:45.651Z,97435.59
2022-09-03T10:15:29.079Z,97429.86
2022-09-03T10:18:00.172Z,97432.26
2022-09-03T10:20:47.459Z,97434.77
2022-09-03T10:23:28.452Z,97433.80
2022-09-03T10:26:13.450Z,97432.07
2022-09-03T10:28:43.061Z,97432.60
2022-09-03T10:31:36.973Z,97431.25
2022-09-03T10:34:18.862Z,97430.97
2022-09-03T10:36:59.757Z,97431.42
2022-09-03T10:39:51.626Z,97424.52
2022-09-03T10:42:43.712Z,97419.11
2022-09-03T10:45:29.123Z,97414.41
2022-09-03T10:48:16.226Z,97411.45
2022-09-03T10:51:05.926Z,97412.44
2022-09-03T10:54:18.936Z,97414.18
2022-09-03T10:57:17.634Z,97410.33
2022-09-03T11:00:05.951Z,97410.20
2022-09-03T11:02:59.054Z,97407.49
2022-09-03T11:05:38.790Z,97397.02
2022-09-03T11:08:17.169Z,97399.79
2022-09-03T11:10:58.861Z,97398.67
2022-09-03T11:13:54.246Z,97400.89
2022-09-03T11:16:34.436Z,97402.73
2022-09-03T11:19:05.805Z,97400.54
2022-09-03T11:21:38.198Z,97397.78
2022-09-03T11:24:13.746Z,97396.22
2022-09-03T11:26:46.149Z,97399.74
2022-09-03T11:29:32.680Z,97395.27
2022-09-03T11:32:11.120Z,97394.11
2022-09-03T11:34:51.457Z,97396.70
2022-09-03T11:37:21.472Z,97396.05
2022-09-03T11:40:08.905Z,97392.60
2022-09-03T11:42:41.207Z,97391.90
2022-09-03T11:45:21.360Z,97388.71
2022-09-03T11:47:52.057Z,97390.98
2022-09-03T11:50:23.018Z,97391.07
2022-09-03T11:52:54.422Z,97395.25
2022-09-03T11:55:43.358Z,97395.06
2022-09-03T11:58:27.308Z,97398.14
2022-09-03T12:00:56.764Z,97397.31
2022-09-03T12:03:47.792Z,97395.31
2022-09-03T12:06:34.093Z,97404.33
2022-09-03T12:09:22.352Z,97406.23
2022-09-03T12:12:29.230Z,97400.02
2022-09-03T12:15:51.299Z,97402.38
2022-09-03T12:18:31.364Z,97405.19
2022-09-03T12:21:00.378Z,97407.21
2022-09-03T12:23:30.891Z,97407.17
2022-09-03T12:26:15.184Z,97411.04
2022-09-03T12:28:50.135Z,97407.58
2022-09-03T12:31:21.871Z,97406.38
2022-09-03T12:34:07.902Z,97405.95
2022-09-03T12:36:48.135Z,97404.31
2022-09-03T12:42:20.955Z,97394.73
2022-09-03T12:44:49.748Z,97389.66
2022-09-03T12:47:38.123Z,97387.86
2022-09-03T12:50:12.507Z,97381.83
2022-09-03T12:52:54.649Z,97377.26
2022-09-03T12:55:27.488Z,97376.08
2022-09-03T12:58:05.154Z,97376.35
2022-09-03T13:00:37.594Z,97384.46
2022-09-03T13:03:19.318Z,97382.58
2022-09-03T13:05:57.303Z,97383.30
2022-09-03T13:08:33.964Z,97384.04
2022-09-03T13:11:05.387Z,97385.89
2022-09-03T13:13:37.263Z,97393.50
2022-09-03T13:16:11.309Z,97395.11
2022-09-03T13:18:45.425Z,97393.96
2022-09-03T13:21:22.605Z,97393.01
2022-09-03T13:24:08.803Z,97392.73
2022-09-03T13:26:49.810Z,97392.92
2022-09-03T13:29:40.495Z,97389.57
2022-09-03T13:32:31.190Z,97397.80
2022-09-03T13:35:07.201Z,97399.23
2022-09-03T13:37:45.524Z,97399.47
2022-09-03T13:40:31.807Z,97399.04
2022-09-03T13:43:27.149Z,97399.11
2022-09-03T13:46:01.906Z,97402.30
2022-09-03T13:49:01.029Z,97400.68
2022-09-03T13:52:04.293Z,97405.57
2022-09-03T13:54:49.001Z,97408.19
2022-09-03T13:57:24.190Z,97406.79
2022-09-03T14:00:11.022Z,97407.10
2022-09-03T14:03:07.214Z,97413.39
2022-09-03T14:06:03.342Z,97410.30
2022-09-03T14:09:02.282Z,97415.98
2022-09-03T14:11:51.926Z,97416.59
2022-09-03T14:14:49.369Z,97417.30
2022-09-03T14:17:23.917Z,97412.83
2022-09-03T14:20:07.924Z,97412.73
2022-09-03T14:22:48.457Z,97408.67
2022-09-03T14:25:19.734Z,97404.77
2022-09-03T14:27:48.764Z,97406.52
2022-09-03T14:30:16.713Z,97405.21
2022-09-03T14:32:57.938Z,97404.88
2022-09-03T14:35:47.294Z,97406.80
2022-09-03T14:38:20.539Z,97405.98
2022-09-03T14:41:13.970Z,97407.67
2022-09-03T14:43:56.412Z,97410.42
2022-09-03T14:46:35.585Z,97407.72
2022-09-03T14:49:18.933Z,97411.16
2022-09-03T14:51:52.848Z,97410.66
2022-09-03T14:54:40.036Z,97407.30
2022-09-03T14:58:04.804Z,97413.94
2022-09-03T15:01:01.829Z,97414.14
2022-09-03T15:03:54.800Z,97416.80
2022-09-03T15:06:34.734Z,97420.73
2022-09-03T15:09:37.350Z,97420.77
2022-09-03T15:12:30.878Z,97418.94
2022-09-03T15:15:06.622Z,97419.70
2022-09-03T15:17:55.836Z,97418.98
2022-09-03T15:20:52.564Z,97418.30
2022-09-03T15:23:37.821Z,97417.04
2022-09-03T15:26:47.427Z,97419.02
2022-09-03T15:29:28.127Z,97420.06
2022-09-03T15:32:05.314Z,97422.23
2022-09-03T15:35:05.543Z,97424.42
2022-09-03T15:37:49.132Z,97426.27
2022-09-03T15:40:26.490Z,97429.11
2022-09-03T15:43:30.140Z,97430.85
2022-09-03T15:46:13.939Z,97432.94
2022-09-03T15:48:45.078Z,97433.20
2022-09-03T15:51:36.689Z,97432.72
2022-09-03T15:54:16.328Z,97431.30
2022-09-03T15:56:59.959Z,97430.44
2022-09-03T15:59:58.789Z,97435.98
2022-09-03T16:02:33.750Z,97443.15
2022-09-03T16:05:08.907Z,97441.98
2022-09-03T16:07:36.902Z,97443.15
2022-09-03T16:10:30.495Z,97446.94
2022-09-03T16:13:38.717Z,97449.77
2022-09-03T16:16:11.510Z,97451.25
2022-09-03T16:18:49.916Z,97447.79
2022-09-03T16:21:38.940Z,97445.73
2022-09-03T16:24:19.186Z,97445.95
2022-09-03T16:26:47.102Z,97446.77
2022-09-03T16:29:17.987Z,97450.84
2022-09-03T16:32:05.031Z,97451.06
2022-09-03T16:35:10.288Z,97450.56
2022-09-03T16:38:22.556Z,97452.52
2022-09-03T16:41:18.951Z,97449.71
2022-09-03T16:44:22.908Z,97453.88
2022-09-03T16:47:10.430Z,97450.48
2022-09-03T16:49:51.764Z,97451.88
2022-09-03T16:52:44.862Z,97454.45
2022-09-03T16:55:24.913Z,97458.69
2022-09-03T16:58:19.886Z,97463.06
2022-09-03T17:01:17.321Z,97467.35
2022-09-03T17:03:52.555Z,97472.63
2022-09-03T17:06:50.998Z,97470.16
2022-09-03T17:09:34.728Z,97473.09
2022-09-03T17:12:07.931Z,97470.16
2022-09-03T17:14:38.812Z,97474.83
2022-09-03T17:17:36.079Z,97478.27
2022-09-03T17:20:47.167Z,97482.60
2022-09-03T17:23:29.286Z,97483.55
2022-09-03T17:26:00.470Z,97487.33
2022-09-03T17:28:43.422Z,97486.30
2022-09-03T17:31:51.812Z,97489.65
2022-09-03T17:34:41.906Z,97493.09
2022-09-03T17:37:34.785Z,97497.06
2022-09-03T17:40:27.748Z,97503.48
2022-09-03T17:43:17.187Z,97501.57
2022-09-03T17:46:13.708Z,97505.98
2022-09-03T17:48:50.667Z,97511.71
2022-09-03T17:51:24.443Z,97517.09
2022-09-03T17:53:59.535Z,97520.52
2022-09-03T17:56:33.840Z,97517.14
2022-09-03T17:59:15.656Z,97521.70
2022-09-03T18:02:25.304Z,97527.30
2022-09-03T18:05:03.423Z,97527.73
2022-09-03T18:07:54.915Z,97527.90
2022-09-03T18:10:45.291Z,97531.59
2022-09-03T18:13:23.522Z,97536.52
2022-09-03T18:16:06.552Z,97535.89
2022-09-03T18:18:42.986Z,97535.27
2022-09-03T18:21:32.913Z,97540.63
2022-09-03T18:24:23.121Z,97542.91
2022-09-03T18:27:17.955Z,97542.85
2022-09-03T18:30:25.214Z,97541.38
2022-09-03T18:33:11.876Z,97540.82
2022-09-03T18:35:58.439Z,97535.59
2022-09-03T18:38:49.755Z,97532.88
2022-09-03T18:41:59.693Z,97536.16
2022-09-03T18:44:46.329Z,97537.34
2022-09-03T18:48:05.476Z,97540.93
2022-09-03T18:51:12.158Z,97546.48
2022-09-03T18:54:27.133Z,97550.64
2022-09-03T18:57:13.796Z,97548.84
2022-09-03T19:00:00.536Z,97551.26
2022-09-03T19:03:06.186Z,97553.48
2022-09-03T19:05:56.926Z,97551.67
2022-09-03T19:08:55.615Z,97553.58
2022-09-03T19:11:56.048Z,97555.80
2022-09-03T19:14:56.847Z,97560.56
2022-09-03T19:18:25.748Z,97562.50
2022-09-03T19:21:23.404Z,97565.34
2022-09-03T19:24:15.949Z,97567.13
2022-09-03T19:27:39.523Z,97569.89
2022-09-03T19:30:40.522Z,97572.89
2022-09-03T19:33:42.371Z,97576.63
2022-09-03T19:36:34.155Z,97578.92
2022-09-03T19:39:36.069Z,97583.29
2022-09-03T19:42:37.812Z,97579.28
2022-09-03T19:45:41.444Z,97578.79
2022-09-03T19:48:28.087Z,97584.23
2022-09-03T19:51:43.917Z,97586.72
2022-09-03T19:54:30.733Z,97586.20
2022-09-03T19:57:17.435Z,97589.41
2022-09-03T20:00:08.103Z,97588.73
2022-09-03T20:03:00.852Z,97588.55
2022-09-03T20:05:47.694Z,97586.06
2022-09-03T20:08:35.863Z,97589.35
2022-09-03T20:11:05.532Z,97592.50
2022-09-03T20:13:54.573Z,97594.84
2022-09-03T20:17:13.876Z,97591.52
2022-09-03T20:20:03.409Z,97592.20
2022-09-03T20:22:39.971Z,97592.70
2022-09-03T20:25:26.890Z,97587.63
2022-09-03T20:28:00.732Z,97596.11
2022-09-03T20:30:42.388Z,97599.26
2022-09-03T20:33:22.978Z,97599.30
2022-09-03T20:36:29.715Z,97599.90
2022-09-03T20:39:15.866Z,97601.84
2022-09-03T20:42:13.572Z,97605.96
2022-09-03T20:44:52.918Z,97603.96
2022-09-03T20:47:28.188Z,97607.31
2022-09-03T20:50:15.272Z,97611.17
2022-09-03T20:52:49.045Z,97610.50
2022-09-03T20:55:33.561Z,97608.06
2022-09-03T20:58:18.590Z,97609.58
2022-09-03T21:00:55.049Z,97613.52
2022-09-03T21:03:28.570Z,97612.85
2022-09-03T21:06:21.496Z,97611.44
2022-09-03T21:08:55.182Z,97611.84
2022-09-03T21:11:32.620Z,97613.80
2022-09-03T21:14:21.929Z,97609.33
2022-09-03T21:17:00.252Z,97608.93
2022-09-03T21:19:43.924Z,97607.12
2022-09-03T21:22:39.883Z,97604.86
2022-09-03T21:25:14.135Z,97605.73
2022-09-03T21:27:48.851Z,97606.55
2022-09-03T21:30:19.610Z,97603.48
2022-09-03T21:33:24.341Z,97607.05
2022-09-03T21:36:01.867Z,97613.27
2022-09-03T21:38:35.679Z,97613.73
2022-09-03T21:41:14.791Z,97618.10
2022-09-03T21:44:12.469Z,97624.47
2022-09-03T21:46:58.995Z,97624.26
2022-09-03T21:49:33.649Z,97623.66
2022-09-03T21:52:12.968Z,97617.30
2022-09-03T21:54:41.146Z,97618.52
2022-09-03T21:57:22.319Z,97616.96
2022-09-03T22:00:19.795Z,97616.11
2022-09-03T22:02:50.142Z,97615.27
2022-09-03T22:05:18.995Z,97614.51
2022-09-03T22:08:18.013Z,97614.63
2022-09-03T22:10:51.756Z,97615.00
2022-09-03T22:13:44.028Z,97621.87
2022-09-03T22:16:23.815Z,97624.07
2022-09-03T22:18:54.234Z,97627.05
2022-09-03T22:22:11.124Z,97627.59
2022-09-03T22:25:04.804Z,97630.09
2022-09-03T22:27:50.567Z,97632.41
2022-09-03T22:30:22.561Z,97629.77
2022-09-03T22:33:24.942Z,97625.34
2022-09-03T22:36:11.843Z,97631.73
2022-09-03T22:38:40.963Z,97631.29
2022-09-03T22:41:08.802Z,97632.84
2022-09-03T22:43:52.397Z,97632.21
2022-09-03T22:46:23.634Z,97633.67
2022-09-03T22:49:28.049Z,97635.91
2022-09-03T22:52:25.344Z,97635.23
2022-09-03T22:55:02.801Z,97636.15
2022-09-03T22:57:37.264Z,97636.80
2022-09-03T23:00:09.109Z,97638.58
2022-09-03T23:02:40.497Z,97639.14
2022-09-03T23:05:23.588Z,97644.46
2022-09-03T23:08:09.723Z,97643.51
2022-09-03T23:10:53.972Z,97647.78
2022-09-03T23:13:46.954Z,97644.23
2022-09-03T23:16:52.992Z,97644.80
2022-09-03T23:19:40.628Z,97643.53
2022-09-03T23:22:40.863Z,97644.54
2022-09-03T23:25:20.202Z,97643.02
2022-09-03T23:27:58.809Z,97641.68
2022-09-03T23:30:26.813Z,97642.19
2022-09-03T23:32:59.884Z,97638.70
2022-09-03T23:35:30.166Z,97640.23
2022-09-03T23:38:19.825Z,97638.30
2022-09-03T23:40:49.973Z,97637.77
2022-09-03T23:43:23.760Z,97637.60
2022-09-03T23:46:00.966Z,97638.31
2022-09-03T23:48:53.403Z,97646.67
2022-09-03T23:51:39.735Z,97647.17
2022-09-03T23:54:19.654Z,97647.45
2022-09-03T23:56:50.641Z,97645.13
2022-09-03T23:59:57.620Z,97648.33
